sensor_id;sensor_type;location;lat;lon;timestamp;P1;durP1;ratioP1;P2;durP2;ratioP2
25667;SDS011;18003;-33.830;151.202;2023-05-18T00:01:00;5.03;;;2.83;;
25667;SDS011;18003;-33.830;151.202;2023-05-18T00:03:30;4.70;;;2.60;;
25667;SDS011;18003;-33.830;151.202;2023-05-18T00:06:00;4.17;;;2.58;;
25667;SDS011;18003;-33.830;151.202;2023-05-18T00:08:30;3.77;;;2.40;;
25667;SDS011;18003;-33.830;151.202;2023-05-18T00:11:01;4.20;;;2.60;;
25667;SDS011;18003;-33.830;151.202;2023-05-18T00:13:31;3.60;;;2.17;;
25667;SDS011;18003;-33.830;151.202;2023-05-18T00:16:01;5.33;;;2.30;;
25667;SDS011;18003;-33.830;151.202;2023-05-18T00:18:31;4.47;;;2.30;;
25667;SDS011;18003;-33.830;151.202;2023-05-18T00:21:02;4.90;;;2.58;;
25667;SDS011;18003;-33.830;151.202;2023-05-18T00:23:32;4.50;;;2.30;;
25667;SDS011;18003;-33.830;151.202;2023-05-18T00:26:03;2.47;;;1.98;;
25667;SDS011;18003;-33.830;151.202;2023-05-18T00:28:33;4.05;;;1.98;;
25667;SDS011;18003;-33.830;151.202;2023-05-18T00:31:03;4.40;;;2.20;;
25667;SDS011;18003;-33.830;151.202;2023-05-18T00:33:33;4.92;;;2.05;;
25667;SDS011;18003;-33.830;151.202;2023-05-18T00:36:03;4.22;;;3.17;;
25667;SDS011;18003;-33.830;151.202;2023-05-18T00:38:33;5.25;;;2.90;;
25667;SDS011;18003;-33.830;151.202;2023-05-18T00:41:03;5.15;;;2.20;;
25667;SDS011;18003;-33.830;151.202;2023-05-18T00:43:33;2.83;;;2.42;;
25667;SDS011;18003;-33.830;151.202;2023-05-18T00:46:03;5.17;;;2.50;;
25667;SDS011;18003;-33.830;151.202;2023-05-18T00:48:33;5.42;;;2.60;;
25667;SDS011;18003;-33.830;151.202;2023-05-18T00:51:04;5.65;;;2.40;;
25667;SDS011;18003;-33.830;151.202;2023-05-18T00:53:34;5.50;;;2.70;;
25667;SDS011;18003;-33.830;151.202;2023-05-18T00:56:04;3.10;;;2.30;;
25667;SDS011;18003;-33.830;151.202;2023-05-18T00:58:35;2.42;;;2.20;;
25667;SDS011;18003;-33.830;151.202;2023-05-18T01:01:07;4.25;;;2.10;;
25667;SDS011;18003;-33.830;151.202;2023-05-18T01:03:37;4.60;;;2.30;;
25667;SDS011;18003;-33.830;151.202;2023-05-18T01:06:08;3.05;;;2.08;;
25667;SDS011;18003;-33.830;151.202;2023-05-18T01:08:40;2.85;;;2.27;;
25667;SDS011;18003;-33.830;151.202;2023-05-18T01:11:13;4.05;;;2.17;;
25667;SDS011;18003;-33.830;151.202;2023-05-18T01:16:50;2.85;;;1.90;;
25667;SDS011;18003;-33.830;151.202;2023-05-18T01:21:56;2.50;;;1.87;;
25667;SDS011;18003;-33.830;151.202;2023-05-18T01:27:15;2.58;;;1.72;;
25667;SDS011;18003;-33.830;151.202;2023-05-18T01:29:47;2.60;;;1.92;;
25667;SDS011;18003;-33.830;151.202;2023-05-18T01:32:21;3.35;;;1.90;;
25667;SDS011;18003;-33.830;151.202;2023-05-18T01:34:50;4.65;;;1.92;;
25667;SDS011;18003;-33.830;151.202;2023-05-18T01:37:20;3.20;;;2.15;;
25667;SDS011;18003;-33.830;151.202;2023-05-18T01:39:50;2.95;;;2.15;;
25667;SDS011;18003;-33.830;151.202;2023-05-18T01:42:22;4.53;;;2.55;;
25667;SDS011;18003;-33.830;151.202;2023-05-18T01:45:01;3.83;;;2.60;;
25667;SDS011;18003;-33.830;151.202;2023-05-18T01:47:27;2.80;;;1.98;;
25667;SDS011;18003;-33.830;151.202;2023-05-18T01:50:09;2.85;;;2.00;;
25667;SDS011;18003;-33.830;151.202;2023-05-18T01:52:45;5.28;;;1.82;;
25667;SDS011;18003;-33.830;151.202;2023-05-18T01:55:17;4.22;;;1.98;;
25667;SDS011;18003;-33.830;151.202;2023-05-18T02:00:18;2.72;;;1.60;;
25667;SDS011;18003;-33.830;151.202;2023-05-18T02:02:49;5.12;;;2.30;;
25667;SDS011;18003;-33.830;151.202;2023-05-18T02:05:19;4.65;;;2.00;;
25667;SDS011;18003;-33.830;151.202;2023-05-18T02:07:49;3.62;;;2.02;;
25667;SDS011;18003;-33.830;151.202;2023-05-18T02:10:19;4.83;;;1.90;;
25667;SDS011;18003;-33.830;151.202;2023-05-18T02:12:50;2.15;;;1.80;;
25667;SDS011;18003;-33.830;151.202;2023-05-18T02:15:20;4.30;;;1.98;;
25667;SDS011;18003;-33.830;151.202;2023-05-18T02:17:50;3.12;;;1.80;;
25667;SDS011;18003;-33.830;151.202;2023-05-18T02:20:21;5.75;;;1.95;;
25667;SDS011;18003;-33.830;151.202;2023-05-18T02:22:51;2.35;;;1.80;;
25667;SDS011;18003;-33.830;151.202;2023-05-18T02:25:21;3.42;;;1.95;;
25667;SDS011;18003;-33.830;151.202;2023-05-18T02:27:51;4.37;;;1.65;;
25667;SDS011;18003;-33.830;151.202;2023-05-18T02:30:21;3.55;;;1.70;;
25667;SDS011;18003;-33.830;151.202;2023-05-18T02:32:51;4.15;;;1.57;;
25667;SDS011;18003;-33.830;151.202;2023-05-18T02:35:21;3.70;;;1.80;;
25667;SDS011;18003;-33.830;151.202;2023-05-18T02:37:51;2.87;;;1.55;;
25667;SDS011;18003;-33.830;151.202;2023-05-18T02:40:22;3.50;;;1.80;;
25667;SDS011;18003;-33.830;151.202;2023-05-18T02:42:53;2.20;;;1.70;;
25667;SDS011;18003;-33.830;151.202;2023-05-18T02:45:23;3.42;;;1.72;;
25667;SDS011;18003;-33.830;151.202;2023-05-18T02:47:53;3.42;;;1.62;;
25667;SDS011;18003;-33.830;151.202;2023-05-18T02:50:23;2.60;;;1.70;;
25667;SDS011;18003;-33.830;151.202;2023-05-18T02:52:53;2.92;;;1.70;;
25667;SDS011;18003;-33.830;151.202;2023-05-18T02:55:26;2.25;;;1.70;;
25667;SDS011;18003;-33.830;151.202;2023-05-18T02:57:54;3.12;;;1.62;;
25667;SDS011;18003;-33.830;151.202;2023-05-18T03:00:25;5.17;;;1.87;;
25667;SDS011;18003;-33.830;151.202;2023-05-18T03:02:56;2.30;;;1.60;;
25667;SDS011;18003;-33.830;151.202;2023-05-18T03:05:26;2.62;;;1.52;;
25667;SDS011;18003;-33.830;151.202;2023-05-18T03:07:56;2.85;;;1.40;;
25667;SDS011;18003;-33.830;151.202;2023-05-18T03:10:27;3.05;;;1.70;;
25667;SDS011;18003;-33.830;151.202;2023-05-18T03:12:57;2.25;;;1.20;;
25667;SDS011;18003;-33.830;151.202;2023-05-18T03:15:28;3.37;;;1.50;;
25667;SDS011;18003;-33.830;151.202;2023-05-18T03:17:58;4.83;;;1.67;;
25667;SDS011;18003;-33.830;151.202;2023-05-18T03:20:28;2.17;;;1.15;;
25667;SDS011;18003;-33.830;151.202;2023-05-18T03:22:58;4.30;;;1.47;;
25667;SDS011;18003;-33.830;151.202;2023-05-18T03:25:28;2.67;;;1.20;;
25667;SDS011;18003;-33.830;151.202;2023-05-18T03:27:58;2.77;;;1.42;;
25667;SDS011;18003;-33.830;151.202;2023-05-18T03:30:28;1.82;;;1.40;;
25667;SDS011;18003;-33.830;151.202;2023-05-18T03:33:00;2.67;;;1.40;;
25667;SDS011;18003;-33.830;151.202;2023-05-18T03:35:30;4.85;;;1.70;;
25667;SDS011;18003;-33.830;151.202;2023-05-18T03:38:00;1.85;;;1.50;;
25667;SDS011;18003;-33.830;151.202;2023-05-18T03:40:30;2.35;;;1.50;;
25667;SDS011;18003;-33.830;151.202;2023-05-18T03:43:00;2.47;;;1.62;;
25667;SDS011;18003;-33.830;151.202;2023-05-18T03:45:30;3.62;;;1.92;;
25667;SDS011;18003;-33.830;151.202;2023-05-18T03:48:00;5.83;;;2.10;;
25667;SDS011;18003;-33.830;151.202;2023-05-18T03:50:31;4.20;;;2.00;;
25667;SDS011;18003;-33.830;151.202;2023-05-18T03:53:01;5.40;;;2.15;;
25667;SDS011;18003;-33.830;151.202;2023-05-18T03:55:31;5.80;;;2.45;;
25667;SDS011;18003;-33.830;151.202;2023-05-18T03:58:01;2.72;;;2.17;;
25667;SDS011;18003;-33.830;151.202;2023-05-18T04:00:31;5.08;;;2.10;;
25667;SDS011;18003;-33.830;151.202;2023-05-18T04:03:01;4.42;;;2.08;;
25667;SDS011;18003;-33.830;151.202;2023-05-18T04:05:32;3.10;;;2.15;;
25667;SDS011;18003;-33.830;151.202;2023-05-18T04:08:02;3.05;;;2.10;;
25667;SDS011;18003;-33.830;151.202;2023-05-18T04:10:33;2.45;;;2.10;;
25667;SDS011;18003;-33.830;151.202;2023-05-18T04:13:03;6.85;;;2.58;;
25667;SDS011;18003;-33.830;151.202;2023-05-18T04:15:33;3.17;;;2.20;;
25667;SDS011;18003;-33.830;151.202;2023-05-18T04:18:04;5.50;;;2.30;;
25667;SDS011;18003;-33.830;151.202;2023-05-18T04:20:35;5.53;;;2.47;;
25667;SDS011;18003;-33.830;151.202;2023-05-18T04:23:05;2.80;;;2.22;;
25667;SDS011;18003;-33.830;151.202;2023-05-18T04:25:35;2.90;;;2.05;;
25667;SDS011;18003;-33.830;151.202;2023-05-18T04:28:07;2.80;;;1.98;;
25667;SDS011;18003;-33.830;151.202;2023-05-18T04:30:37;3.12;;;1.70;;
25667;SDS011;18003;-33.830;151.202;2023-05-18T04:33:07;2.90;;;2.00;;
25667;SDS011;18003;-33.830;151.202;2023-05-18T04:35:38;4.05;;;2.40;;
25667;SDS011;18003;-33.830;151.202;2023-05-18T04:38:08;1.85;;;1.60;;
25667;SDS011;18003;-33.830;151.202;2023-05-18T04:40:38;4.53;;;1.82;;
25667;SDS011;18003;-33.830;151.202;2023-05-18T04:43:08;3.70;;;1.92;;
25667;SDS011;18003;-33.830;151.202;2023-05-18T04:45:38;2.80;;;1.82;;
25667;SDS011;18003;-33.830;151.202;2023-05-18T04:48:08;2.42;;;2.02;;
25667;SDS011;18003;-33.830;151.202;2023-05-18T04:50:39;4.28;;;2.00;;
25667;SDS011;18003;-33.830;151.202;2023-05-18T04:53:09;3.98;;;2.00;;
25667;SDS011;18003;-33.830;151.202;2023-05-18T04:55:39;4.60;;;2.05;;
25667;SDS011;18003;-33.830;151.202;2023-05-18T04:58:09;5.80;;;2.20;;
25667;SDS011;18003;-33.830;151.202;2023-05-18T05:00:39;3.02;;;2.12;;
25667;SDS011;18003;-33.830;151.202;2023-05-18T05:03:09;3.15;;;2.12;;
25667;SDS011;18003;-33.830;151.202;2023-05-18T05:05:39;3.83;;;1.92;;
25667;SDS011;18003;-33.830;151.202;2023-05-18T05:08:09;5.67;;;2.30;;
25667;SDS011;18003;-33.830;151.202;2023-05-18T05:10:40;2.52;;;1.95;;
25667;SDS011;18003;-33.830;151.202;2023-05-18T05:13:10;4.83;;;2.20;;
25667;SDS011;18003;-33.830;151.202;2023-05-18T05:15:41;4.12;;;2.02;;
25667;SDS011;18003;-33.830;151.202;2023-05-18T05:18:11;2.83;;;2.00;;
25667;SDS011;18003;-33.830;151.202;2023-05-18T05:20:41;5.72;;;2.02;;
25667;SDS011;18003;-33.830;151.202;2023-05-18T05:23:11;6.05;;;2.40;;
25667;SDS011;18003;-33.830;151.202;2023-05-18T05:25:41;7.08;;;2.22;;
25667;SDS011;18003;-33.830;151.202;2023-05-18T05:28:16;3.20;;;2.02;;
25667;SDS011;18003;-33.830;151.202;2023-05-18T05:30:42;5.87;;;2.27;;
25667;SDS011;18003;-33.830;151.202;2023-05-18T05:33:12;5.80;;;2.67;;
25667;SDS011;18003;-33.830;151.202;2023-05-18T05:35:42;8.08;;;2.60;;
25667;SDS011;18003;-33.830;151.202;2023-05-18T05:38:12;5.28;;;2.45;;
25667;SDS011;18003;-33.830;151.202;2023-05-18T05:40:42;4.85;;;2.30;;
25667;SDS011;18003;-33.830;151.202;2023-05-18T05:43:12;3.55;;;2.12;;
25667;SDS011;18003;-33.830;151.202;2023-05-18T05:45:42;4.22;;;2.40;;
25667;SDS011;18003;-33.830;151.202;2023-05-18T05:48:12;4.42;;;2.25;;
25667;SDS011;18003;-33.830;151.202;2023-05-18T05:50:42;4.87;;;2.25;;
25667;SDS011;18003;-33.830;151.202;2023-05-18T05:53:12;5.20;;;2.20;;
25667;SDS011;18003;-33.830;151.202;2023-05-18T05:55:46;5.10;;;3.00;;
25667;SDS011;18003;-33.830;151.202;2023-05-18T05:58:16;6.35;;;3.15;;
25667;SDS011;18003;-33.830;151.202;2023-05-18T06:00:46;5.75;;;2.90;;
25667;SDS011;18003;-33.830;151.202;2023-05-18T06:03:16;5.80;;;2.85;;
25667;SDS011;18003;-33.830;151.202;2023-05-18T06:05:47;3.65;;;2.40;;
25667;SDS011;18003;-33.830;151.202;2023-05-18T06:08:17;4.72;;;2.10;;
25667;SDS011;18003;-33.830;151.202;2023-05-18T06:10:47;3.65;;;2.17;;
25667;SDS011;18003;-33.830;151.202;2023-05-18T06:13:17;5.33;;;2.33;;
25667;SDS011;18003;-33.830;151.202;2023-05-18T06:15:47;6.42;;;2.17;;
25667;SDS011;18003;-33.830;151.202;2023-05-18T06:18:17;5.53;;;2.40;;
25667;SDS011;18003;-33.830;151.202;2023-05-18T06:20:47;7.92;;;1.82;;
25667;SDS011;18003;-33.830;151.202;2023-05-18T06:23:18;4.70;;;2.30;;
25667;SDS011;18003;-33.830;151.202;2023-05-18T06:25:49;3.98;;;2.20;;
25667;SDS011;18003;-33.830;151.202;2023-05-18T06:28:19;5.12;;;2.22;;
25667;SDS011;18003;-33.830;151.202;2023-05-18T06:30:49;5.72;;;2.58;;
25667;SDS011;18003;-33.830;151.202;2023-05-18T06:33:19;5.90;;;1.80;;
25667;SDS011;18003;-33.830;151.202;2023-05-18T06:35:49;4.92;;;2.10;;
25667;SDS011;18003;-33.830;151.202;2023-05-18T06:38:19;6.60;;;2.40;;
25667;SDS011;18003;-33.830;151.202;2023-05-18T06:40:49;4.22;;;2.40;;
25667;SDS011;18003;-33.830;151.202;2023-05-18T06:43:19;3.65;;;2.33;;
25667;SDS011;18003;-33.830;151.202;2023-05-18T06:45:50;5.20;;;2.85;;
25667;SDS011;18003;-33.830;151.202;2023-05-18T06:48:22;7.45;;;2.92;;
25667;SDS011;18003;-33.830;151.202;2023-05-18T06:50:52;6.45;;;2.37;;
25667;SDS011;18003;-33.830;151.202;2023-05-18T06:53:22;4.80;;;2.40;;
25667;SDS011;18003;-33.830;151.202;2023-05-18T06:55:52;5.65;;;2.40;;
25667;SDS011;18003;-33.830;151.202;2023-05-18T06:58:22;4.53;;;1.80;;
25667;SDS011;18003;-33.830;151.202;2023-05-18T07:00:52;6.33;;;2.17;;
25667;SDS011;18003;-33.830;151.202;2023-05-18T07:03:22;5.28;;;1.82;;
25667;SDS011;18003;-33.830;151.202;2023-05-18T07:05:52;4.50;;;1.75;;
25667;SDS011;18003;-33.830;151.202;2023-05-18T07:08:22;3.80;;;1.98;;
25667;SDS011;18003;-33.830;151.202;2023-05-18T07:10:52;2.85;;;1.65;;
25667;SDS011;18003;-33.830;151.202;2023-05-18T07:13:23;3.30;;;1.72;;
25667;SDS011;18003;-33.830;151.202;2023-05-18T07:15:54;4.15;;;1.90;;
25667;SDS011;18003;-33.830;151.202;2023-05-18T07:18:24;5.37;;;1.80;;
25667;SDS011;18003;-33.830;151.202;2023-05-18T07:20:54;2.65;;;1.70;;
25667;SDS011;18003;-33.830;151.202;2023-05-18T07:23:24;4.10;;;1.50;;
25667;SDS011;18003;-33.830;151.202;2023-05-18T07:25:56;3.30;;;1.80;;
25667;SDS011;18003;-33.830;151.202;2023-05-18T07:30:54;5.47;;;2.20;;
25667;SDS011;18003;-33.830;151.202;2023-05-18T07:33:24;2.90;;;1.77;;
25667;SDS011;18003;-33.830;151.202;2023-05-18T07:35:54;4.10;;;1.60;;
25667;SDS011;18003;-33.830;151.202;2023-05-18T07:38:24;1.87;;;1.70;;
25667;SDS011;18003;-33.830;151.202;2023-05-18T07:40:54;1.90;;;1.40;;
25667;SDS011;18003;-33.830;151.202;2023-05-18T07:43:25;2.30;;;1.72;;
25667;SDS011;18003;-33.830;151.202;2023-05-18T07:45:56;2.83;;;1.70;;
25667;SDS011;18003;-33.830;151.202;2023-05-18T07:48:26;2.33;;;1.77;;
25667;SDS011;18003;-33.830;151.202;2023-05-18T07:50:56;4.05;;;2.20;;
25667;SDS011;18003;-33.830;151.202;2023-05-18T07:53:26;2.65;;;1.77;;
25667;SDS011;18003;-33.830;151.202;2023-05-18T07:55:56;3.85;;;1.42;;
25667;SDS011;18003;-33.830;151.202;2023-05-18T07:58:26;2.72;;;1.62;;
25667;SDS011;18003;-33.830;151.202;2023-05-18T08:00:57;4.63;;;2.10;;
25667;SDS011;18003;-33.830;151.202;2023-05-18T08:03:27;5.90;;;1.90;;
25667;SDS011;18003;-33.830;151.202;2023-05-18T08:05:57;4.85;;;1.98;;
25667;SDS011;18003;-33.830;151.202;2023-05-18T08:08:27;5.58;;;2.08;;
25667;SDS011;18003;-33.830;151.202;2023-05-18T08:10:57;15.48;;;3.05;;
25667;SDS011;18003;-33.830;151.202;2023-05-18T08:13:27;8.58;;;2.98;;
25667;SDS011;18003;-33.830;151.202;2023-05-18T08:15:57;4.03;;;2.00;;
25667;SDS011;18003;-33.830;151.202;2023-05-18T08:18:27;3.35;;;1.90;;
25667;SDS011;18003;-33.830;151.202;2023-05-18T08:20:57;3.83;;;1.95;;
25667;SDS011;18003;-33.830;151.202;2023-05-18T08:23:28;4.50;;;2.20;;
25667;SDS011;18003;-33.830;151.202;2023-05-18T08:25:58;5.22;;;1.87;;
25667;SDS011;18003;-33.830;151.202;2023-05-18T08:28:30;4.65;;;1.75;;
25667;SDS011;18003;-33.830;151.202;2023-05-18T08:31:01;5.17;;;2.40;;
25667;SDS011;18003;-33.830;151.202;2023-05-18T08:33:31;4.55;;;2.02;;
25667;SDS011;18003;-33.830;151.202;2023-05-18T08:36:04;5.60;;;2.10;;
25667;SDS011;18003;-33.830;151.202;2023-05-18T08:38:37;6.33;;;2.17;;
25667;SDS011;18003;-33.830;151.202;2023-05-18T08:41:19;4.25;;;1.60;;
25667;SDS011;18003;-33.830;151.202;2023-05-18T08:44:04;6.17;;;2.08;;
25667;SDS011;18003;-33.830;151.202;2023-05-18T08:46:34;2.83;;;1.57;;
25667;SDS011;18003;-33.830;151.202;2023-05-18T08:49:09;4.37;;;1.50;;
25667;SDS011;18003;-33.830;151.202;2023-05-18T08:51:39;4.05;;;1.80;;
25667;SDS011;18003;-33.830;151.202;2023-05-18T08:54:14;4.92;;;1.80;;
25667;SDS011;18003;-33.830;151.202;2023-05-18T08:56:48;5.62;;;2.37;;
25667;SDS011;18003;-33.830;151.202;2023-05-18T08:59:15;5.85;;;2.25;;
25667;SDS011;18003;-33.830;151.202;2023-05-18T09:01:49;7.53;;;2.50;;
25667;SDS011;18003;-33.830;151.202;2023-05-18T09:04:20;6.03;;;2.62;;
25667;SDS011;18003;-33.830;151.202;2023-05-18T09:06:50;4.90;;;2.30;;
25667;SDS011;18003;-33.830;151.202;2023-05-18T09:09:22;6.05;;;2.95;;
25667;SDS011;18003;-33.830;151.202;2023-05-18T09:11:52;5.53;;;2.60;;
25667;SDS011;18003;-33.830;151.202;2023-05-18T09:16:53;6.87;;;2.95;;
25667;SDS011;18003;-33.830;151.202;2023-05-18T09:19:23;9.15;;;4.10;;
25667;SDS011;18003;-33.830;151.202;2023-05-18T09:21:53;6.53;;;4.00;;
25667;SDS011;18003;-33.830;151.202;2023-05-18T09:24:24;4.65;;;3.30;;
25667;SDS011;18003;-33.830;151.202;2023-05-18T09:26:54;6.30;;;3.25;;
25667;SDS011;18003;-33.830;151.202;2023-05-18T09:29:25;6.03;;;3.00;;
25667;SDS011;18003;-33.830;151.202;2023-05-18T09:31:55;7.20;;;2.95;;
25667;SDS011;18003;-33.830;151.202;2023-05-18T09:34:26;6.70;;;3.52;;
25667;SDS011;18003;-33.830;151.202;2023-05-18T09:36:58;7.50;;;3.10;;
25667;SDS011;18003;-33.830;151.202;2023-05-18T09:39:28;6.72;;;3.27;;
25667;SDS011;18003;-33.830;151.202;2023-05-18T09:41:58;6.55;;;2.95;;
25667;SDS011;18003;-33.830;151.202;2023-05-18T09:44:33;6.28;;;3.08;;
25667;SDS011;18003;-33.830;151.202;2023-05-18T09:47:07;2.90;;;2.25;;
25667;SDS011;18003;-33.830;151.202;2023-05-18T09:49:38;4.10;;;2.20;;
25667;SDS011;18003;-33.830;151.202;2023-05-18T09:52:09;5.53;;;2.22;;
25667;SDS011;18003;-33.830;151.202;2023-05-18T09:54:39;6.10;;;2.45;;
25667;SDS011;18003;-33.830;151.202;2023-05-18T09:57:10;5.10;;;2.40;;
25667;SDS011;18003;-33.830;151.202;2023-05-18T09:59:41;4.58;;;2.50;;
25667;SDS011;18003;-33.830;151.202;2023-05-18T10:02:11;5.30;;;2.60;;
25667;SDS011;18003;-33.830;151.202;2023-05-18T10:04:42;4.47;;;2.02;;
25667;SDS011;18003;-33.830;151.202;2023-05-18T10:07:14;4.33;;;2.30;;
25667;SDS011;18003;-33.830;151.202;2023-05-18T10:09:45;2.90;;;2.05;;
25667;SDS011;18003;-33.830;151.202;2023-05-18T10:12:17;3.70;;;1.90;;
25667;SDS011;18003;-33.830;151.202;2023-05-18T10:14:54;4.33;;;2.52;;
25667;SDS011;18003;-33.830;151.202;2023-05-18T10:17:28;4.55;;;2.75;;
25667;SDS011;18003;-33.830;151.202;2023-05-18T10:20:03;5.95;;;3.00;;
25667;SDS011;18003;-33.830;151.202;2023-05-18T10:22:37;4.35;;;2.85;;
25667;SDS011;18003;-33.830;151.202;2023-05-18T10:25:10;3.50;;;2.85;;
25667;SDS011;18003;-33.830;151.202;2023-05-18T10:27:54;4.65;;;2.70;;
25667;SDS011;18003;-33.830;151.202;2023-05-18T10:30:19;4.83;;;3.02;;
25667;SDS011;18003;-33.830;151.202;2023-05-18T10:32:50;3.25;;;2.42;;
25667;SDS011;18003;-33.830;151.202;2023-05-18T10:35:21;6.20;;;2.25;;
25667;SDS011;18003;-33.830;151.202;2023-05-18T10:37:53;3.85;;;1.92;;
25667;SDS011;18003;-33.830;151.202;2023-05-18T10:40:24;2.95;;;1.85;;
25667;SDS011;18003;-33.830;151.202;2023-05-18T10:42:58;3.25;;;1.90;;
25667;SDS011;18003;-33.830;151.202;2023-05-18T10:45:33;2.98;;;1.72;;
25667;SDS011;18003;-33.830;151.202;2023-05-18T10:48:04;3.00;;;1.75;;
25667;SDS011;18003;-33.830;151.202;2023-05-18T10:50:36;2.77;;;1.80;;
25667;SDS011;18003;-33.830;151.202;2023-05-18T10:53:07;5.05;;;2.00;;
25667;SDS011;18003;-33.830;151.202;2023-05-18T10:55:39;4.55;;;2.30;;
25667;SDS011;18003;-33.830;151.202;2023-05-18T10:58:10;3.20;;;2.08;;
25667;SDS011;18003;-33.830;151.202;2023-05-18T11:00:47;3.12;;;2.10;;
25667;SDS011;18003;-33.830;151.202;2023-05-18T11:03:19;3.65;;;2.10;;
25667;SDS011;18003;-33.830;151.202;2023-05-18T11:05:50;3.83;;;1.90;;
25667;SDS011;18003;-33.830;151.202;2023-05-18T11:08:25;2.72;;;2.00;;
25667;SDS011;18003;-33.830;151.202;2023-05-18T11:11:02;5.00;;;1.80;;
25667;SDS011;18003;-33.830;151.202;2023-05-18T11:13:36;3.40;;;1.92;;
25667;SDS011;18003;-33.830;151.202;2023-05-18T11:16:08;3.15;;;2.10;;
25667;SDS011;18003;-33.830;151.202;2023-05-18T11:18:44;3.67;;;1.85;;
25667;SDS011;18003;-33.830;151.202;2023-05-18T11:21:19;3.87;;;1.60;;
25667;SDS011;18003;-33.830;151.202;2023-05-18T11:26:54;8.98;;;1.85;;
25667;SDS011;18003;-33.830;151.202;2023-05-18T11:29:36;2.42;;;1.70;;
25667;SDS011;18003;-33.830;151.202;2023-05-18T11:32:21;3.58;;;2.10;;
25667;SDS011;18003;-33.830;151.202;2023-05-18T11:34:55;3.77;;;1.98;;
25667;SDS011;18003;-33.830;151.202;2023-05-18T11:40:11;4.97;;;1.90;;
25667;SDS011;18003;-33.830;151.202;2023-05-18T11:42:42;2.72;;;2.00;;
25667;SDS011;18003;-33.830;151.202;2023-05-18T11:45:13;3.03;;;1.87;;
25667;SDS011;18003;-33.830;151.202;2023-05-18T11:47:44;2.87;;;1.92;;
25667;SDS011;18003;-33.830;151.202;2023-05-18T11:50:15;4.85;;;2.42;;
25667;SDS011;18003;-33.830;151.202;2023-05-18T11:52:46;4.10;;;1.90;;
25667;SDS011;18003;-33.830;151.202;2023-05-18T11:55:18;5.12;;;2.70;;
25667;SDS011;18003;-33.830;151.202;2023-05-18T11:57:48;3.77;;;2.30;;
25667;SDS011;18003;-33.830;151.202;2023-05-18T12:00:19;3.65;;;2.47;;
25667;SDS011;18003;-33.830;151.202;2023-05-18T12:02:50;4.17;;;2.25;;
25667;SDS011;18003;-33.830;151.202;2023-05-18T12:05:21;3.83;;;2.05;;
25667;SDS011;18003;-33.830;151.202;2023-05-18T12:07:52;6.60;;;2.20;;
25667;SDS011;18003;-33.830;151.202;2023-05-18T12:10:22;3.15;;;1.98;;
25667;SDS011;18003;-33.830;151.202;2023-05-18T12:12:52;3.22;;;1.82;;
25667;SDS011;18003;-33.830;151.202;2023-05-18T12:15:23;3.72;;;1.80;;
25667;SDS011;18003;-33.830;151.202;2023-05-18T12:17:56;4.83;;;2.03;;
25667;SDS011;18003;-33.830;151.202;2023-05-18T12:20:25;3.42;;;1.95;;
25667;SDS011;18003;-33.830;151.202;2023-05-18T12:22:56;3.17;;;1.92;;
25667;SDS011;18003;-33.830;151.202;2023-05-18T12:25:26;5.97;;;2.05;;
25667;SDS011;18003;-33.830;151.202;2023-05-18T12:27:56;6.10;;;1.85;;
25667;SDS011;18003;-33.830;151.202;2023-05-18T12:30:26;3.90;;;2.00;;
25667;SDS011;18003;-33.830;151.202;2023-05-18T12:32:59;4.25;;;2.40;;
25667;SDS011;18003;-33.830;151.202;2023-05-18T12:35:29;3.62;;;1.75;;
25667;SDS011;18003;-33.830;151.202;2023-05-18T12:37:59;4.95;;;1.80;;
25667;SDS011;18003;-33.830;151.202;2023-05-18T12:40:36;5.15;;;2.15;;
25667;SDS011;18003;-33.830;151.202;2023-05-18T12:43:13;3.70;;;1.85;;
25667;SDS011;18003;-33.830;151.202;2023-05-18T12:45:43;4.85;;;2.00;;
25667;SDS011;18003;-33.830;151.202;2023-05-18T12:48:13;5.42;;;2.20;;
25667;SDS011;18003;-33.830;151.202;2023-05-18T12:50:49;5.75;;;2.20;;
25667;SDS011;18003;-33.830;151.202;2023-05-18T12:53:19;4.20;;;1.90;;
25667;SDS011;18003;-33.830;151.202;2023-05-18T12:55:55;5.50;;;2.30;;
25667;SDS011;18003;-33.830;151.202;2023-05-18T12:58:29;6.15;;;3.00;;
25667;SDS011;18003;-33.830;151.202;2023-05-18T13:01:05;7.25;;;2.75;;
25667;SDS011;18003;-33.830;151.202;2023-05-18T13:03:40;5.90;;;2.75;;
25667;SDS011;18003;-33.830;151.202;2023-05-18T13:06:10;4.95;;;2.47;;
25667;SDS011;18003;-33.830;151.202;2023-05-18T13:08:40;5.70;;;2.50;;
25667;SDS011;18003;-33.830;151.202;2023-05-18T13:11:11;7.40;;;2.85;;
25667;SDS011;18003;-33.830;151.202;2023-05-18T13:13:56;3.98;;;2.80;;
25667;SDS011;18003;-33.830;151.202;2023-05-18T13:16:27;5.25;;;2.70;;
25667;SDS011;18003;-33.830;151.202;2023-05-18T13:19:01;7.33;;;2.98;;
25667;SDS011;18003;-33.830;151.202;2023-05-18T13:21:36;4.65;;;2.58;;
25667;SDS011;18003;-33.830;151.202;2023-05-18T13:24:06;4.50;;;2.70;;
25667;SDS011;18003;-33.830;151.202;2023-05-18T13:26:36;4.67;;;2.95;;
25667;SDS011;18003;-33.830;151.202;2023-05-18T13:29:06;3.90;;;2.77;;
25667;SDS011;18003;-33.830;151.202;2023-05-18T13:31:36;3.98;;;2.60;;
25667;SDS011;18003;-33.830;151.202;2023-05-18T13:34:07;4.62;;;2.60;;
25667;SDS011;18003;-33.830;151.202;2023-05-18T13:36:37;4.67;;;3.10;;
25667;SDS011;18003;-33.830;151.202;2023-05-18T13:39:07;3.77;;;2.70;;
25667;SDS011;18003;-33.830;151.202;2023-05-18T13:41:37;2.92;;;2.40;;
25667;SDS011;18003;-33.830;151.202;2023-05-18T13:44:07;3.85;;;2.65;;
25667;SDS011;18003;-33.830;151.202;2023-05-18T13:46:38;5.40;;;2.60;;
25667;SDS011;18003;-33.830;151.202;2023-05-18T13:49:08;3.35;;;2.52;;
25667;SDS011;18003;-33.830;151.202;2023-05-18T13:51:39;4.67;;;2.50;;
25667;SDS011;18003;-33.830;151.202;2023-05-18T13:54:09;4.75;;;2.50;;
25667;SDS011;18003;-33.830;151.202;2023-05-18T13:56:39;3.35;;;2.83;;
25667;SDS011;18003;-33.830;151.202;2023-05-18T13:59:09;5.33;;;2.85;;
25667;SDS011;18003;-33.830;151.202;2023-05-18T14:01:40;4.70;;;2.62;;
25667;SDS011;18003;-33.830;151.202;2023-05-18T14:04:10;3.77;;;2.70;;
25667;SDS011;18003;-33.830;151.202;2023-05-18T14:06:40;3.77;;;2.58;;
25667;SDS011;18003;-33.830;151.202;2023-05-18T14:09:10;2.92;;;2.20;;
25667;SDS011;18003;-33.830;151.202;2023-05-18T14:11:40;3.50;;;2.80;;
25667;SDS011;18003;-33.830;151.202;2023-05-18T14:14:10;3.55;;;2.58;;
25667;SDS011;18003;-33.830;151.202;2023-05-18T14:16:40;4.65;;;2.65;;
25667;SDS011;18003;-33.830;151.202;2023-05-18T14:19:10;3.17;;;2.52;;
25667;SDS011;18003;-33.830;151.202;2023-05-18T14:21:40;5.70;;;2.85;;
25667;SDS011;18003;-33.830;151.202;2023-05-18T14:24:10;3.47;;;2.87;;
25667;SDS011;18003;-33.830;151.202;2023-05-18T14:26:40;3.95;;;2.70;;
25667;SDS011;18003;-33.830;151.202;2023-05-18T14:29:10;3.33;;;2.52;;
25667;SDS011;18003;-33.830;151.202;2023-05-18T14:31:41;4.35;;;2.60;;
25667;SDS011;18003;-33.830;151.202;2023-05-18T14:34:14;3.27;;;2.60;;
25667;SDS011;18003;-33.830;151.202;2023-05-18T14:36:43;3.40;;;2.30;;
25667;SDS011;18003;-33.830;151.202;2023-05-18T14:39:13;3.98;;;2.67;;
25667;SDS011;18003;-33.830;151.202;2023-05-18T14:41:43;4.05;;;2.45;;
25667;SDS011;18003;-33.830;151.202;2023-05-18T14:44:13;4.17;;;2.40;;
25667;SDS011;18003;-33.830;151.202;2023-05-18T14:46:43;3.58;;;2.45;;
25667;SDS011;18003;-33.830;151.202;2023-05-18T14:49:13;2.67;;;2.40;;
25667;SDS011;18003;-33.830;151.202;2023-05-18T14:51:43;2.40;;;2.20;;